Latest Coastal Weather Observations for Stenhouse Bay

IDS60701

Issued at 4:35 pm CST Thursday 17 April 2014 (issued every 10 minutes, with the page automatically refreshed every 10 minutes)

About coastal observations | Map of coastal stations | Coastal observations for SA | Marine services | Other Formats
Station Details ID: 022049 Name: STENHOUSE BAY Lat: -35.28 Lon: 136.94 Height: 42.0 m
Data from the previous 72 hours. | See also: Recent months at Stenhouse Bay
Date/Time
CST
Temp

°C
Wind Pressure Rain
since 9am
mm
Weather Cloud Vis
km
Sea
Height
m
Swell
Dir
 
Speed
knots
Gust
knots
hPa Trend Height
m
Period
s
Dir
17/04:30pm 20.3 NNW 6 8 1018.4 - 0.2 - - - - - - -
17/04:00pm 21.4 NNW 8 12 1018.6 - 0.2 - - - - - - -
17/03:30pm 22.6 NNW 9 11 1018.7 - 0.2 - - - - - - -
17/03:00pm 22.4 NW 9 12 1019.0 - 0.2 - - - - - - -
17/02:30pm 22.8 NW 11 15 1019.2 - 0.2 - - - - - - -
17/02:00pm 21.8 NW 10 14 1019.4 - 0.2 - - - - - - -
17/01:30pm 22.4 NW 10 14 1019.4 - 0.2 - - - - - - -
17/01:00pm 23.4 NNW 10 15 1019.8 - 0.2 - - - - - - -
17/12:30pm 23.1 N 8 12 1020.2 - 0.2 - - - - - - -
17/12:00pm 22.1 NW 5 10 1020.7 - 0.0 - - - - - - -
17/11:30am 21.7 NW 8 12 1021.0 - 0.0 - - - - - - -
17/11:00am 21.1 NNW 9 12 1021.3 - 0.0 - - - - - - -
17/10:30am 21.2 NNW 8 12 1021.2 - 0.0 - - - - - - -
17/10:00am 19.7 NW 7 10 1021.4 - 0.0 - - - - - - -
17/09:30am 18.1 NW 5 8 1021.3 - 0.0 - - - - - - -
17/09:00am 18.2 N 3 5 1021.2 - 0.0 - - - - - - -
17/08:30am 17.0 NW 1 2 1021.0 - 0.0 - - - - - - -
17/08:00am 15.9 N 2 3 1020.8 - 0.0 - - - - - - -
17/07:30am 15.1 N 2 3 1020.4 - 0.0 - - - - - - -
17/07:00am 14.7 N 2 4 1020.1 - 0.0 - - - - - - -
17/06:30am 15.1 N 2 3 1019.9 - 0.0 - - - - - - -
17/06:00am 15.0 NNW 1 2 1019.9 - 0.0 - - - - - - -
17/05:30am 14.6 N 2 3 1019.7 - 0.0 - - - - - - -
17/05:00am 15.9 CALM 0 0 1019.8 - 0.0 - - - - - - -
17/04:30am 15.6 SSW 3 4 1019.6 - 0.0 - - - - - - -
17/04:00am 16.0 SW 2 3 1019.7 - 0.0 - - - - - - -
17/03:30am 15.9 SW 1 3 1019.6 - 0.0 - - - - - - -
17/03:00am 15.6 WSW 2 3 1019.6 - 0.0 - - - - - - -
17/02:30am 16.3 W 3 4 1019.6 - 0.0 - - - - - - -
17/02:00am 16.1 W 5 9 1019.9 - 0.0 - - - - - - -
17/01:30am 15.2 NW 4 6 1020.0 - 0.0 - - - - - - -
17/01:00am 15.4 WNW 6 6 1020.0 - 0.0 - - - - - - -
17/12:30am 15.3 WNW 4 5 1019.9 - 0.0 - - - - - - -
17/12:00am 15.5 NW 5 6 1020.0 - 0.0 - - - - - - -
 
Date/Time
CST
Temp

°C
Wind Pressure Rain
since 9am
mm
Weather Cloud Vis
km
Sea
Height
m
Swell
Dir
 
Speed
knots
Gust
knots
hPa Trend Height
m
Period
s
Dir
16/11:30pm 15.3 WNW 4 5 1020.1 - 0.0 - - - - - - -
16/11:00pm 15.5 NW 4 5 1020.4 - 0.0 - - - - - - -
16/10:30pm 15.9 NW 4 4 1020.3 - 0.0 - - - - - - -
16/10:00pm 15.3 NW 4 4 1020.5 - 0.0 - - - - - - -
16/09:30pm 15.6 WNW 4 5 1020.2 - 0.0 - - - - - - -
16/09:00pm 15.3 WNW 4 5 1020.2 - 0.0 - - - - - - -
16/08:30pm 15.5 WNW 3 4 1020.0 - 0.0 - - - - - - -
16/08:00pm 15.7 W 5 6 1020.1 - 0.0 - - - - - - -
16/07:30pm 15.9 W 6 6 1019.8 - 0.0 - - - - - - -
16/07:00pm 16.1 W 6 7 1019.8 - 0.0 - - - - - - -
16/06:30pm 16.3 WSW 6 7 1019.3 - 0.0 - - - - - - -
16/06:00pm 17.1 W 4 6 1019.1 - 0.0 - - - - - - -
16/05:30pm 18.2 WSW 7 11 1019.0 - 0.0 - - - - - - -
16/05:00pm 19.1 WSW 7 9 1018.9 - 0.0 - - - - - - -
16/04:30pm 19.7 WSW 8 13 1018.7 - 0.0 - - - - - - -
16/04:00pm 20.4 WSW 9 14 1018.7 - 0.0 - - - - - - -
16/03:30pm 21.2 W 9 13 1018.7 - 0.0 - - - - - - -
16/03:00pm 22.6 W 10 14 1018.7 - 0.0 - - - - - - -
16/02:30pm 22.0 W 10 14 1018.7 - 0.0 - - - - - - -
16/02:00pm 22.4 W 11 14 1018.8 - 0.0 - - - - - - -
16/01:30pm 21.5 WNW 9 13 1019.0 - 0.0 - - - - - - -
16/01:00pm 22.3 NW 8 13 1019.4 - 0.0 - - - - - - -
16/12:30pm 21.8 WNW 9 15 1019.5 - 0.0 - - - - - - -
16/12:00pm 22.4 WNW 10 15 1019.6 - 0.0 - - - - - - -
16/11:30am 22.5 NNW 9 14 1019.7 - 0.0 - - - - - - -
16/11:00am 21.5 NNW 9 13 1019.9 - 0.0 - - - - - - -
16/10:30am 21.6 NNW 10 14 1019.7 - 0.0 - - - - - - -
16/10:00am 20.8 NNW 8 12 1020.0 - 0.0 - - - - - - -
16/09:30am 19.3 NNW 6 10 1020.6 - 0.0 - - - - - - -
16/09:00am 17.8 N 6 9 1020.5 - 0.0 - - - - - - -
16/08:30am 15.6 N 5 6 1020.4 - 0.0 - - - - - - -
16/08:00am 13.9 N 4 6 1020.1 - 0.0 - - - - - - -
16/07:30am 12.7 N 4 5 1019.9 - 0.0 - - - - - - -
16/07:00am 12.2 N 4 6 1019.7 - 0.0 - - - - - - -
16/06:30am 12.1 N 4 5 1019.7 - 0.0 - - - - - - -
16/06:00am 12.2 N 5 6 1019.6 - 0.0 - - - - - - -
16/05:30am 13.0 N 4 6 1019.7 - 0.0 - - - - - - -
16/05:00am 13.1 N 3 4 1020.1 - 0.0 - - - - - - -
16/04:30am 13.5 N 3 4 1020.3 - 0.0 - - - - - - -
16/04:00am 13.6 NNW 1 2 1020.3 - 0.0 - - - - - - -
16/03:30am 13.4 NNW 2 2 1019.8 - 0.0 - - - - - - -
16/03:00am 13.8 N 1 2 1020.0 - 0.0 - - - - - - -
16/02:30am 15.2 NE 2 5 1020.5 - 0.0 - - - - - - -
16/02:00am 16.2 ESE 7 10 1020.8 - 0.0 - - - - - - -
16/01:30am 15.9 ESE 7 9 1021.2 - 0.0 - - - - - - -
16/01:00am 15.7 ESE 7 9 1021.5 - 0.0 - - - - - - -
16/12:30am 15.6 ESE 7 9 1021.5 - 0.0 - - - - - - -
16/12:00am 15.6 ESE 7 9 1021.8 - 0.0 - - - - - - -
 
Date/Time
CST
Temp

°C
Wind Pressure Rain
since 9am
mm
Weather Cloud Vis
km
Sea
Height
m
Swell
Dir
 
Speed
knots
Gust
knots
hPa Trend Height
m
Period
s
Dir
15/11:30pm 15.6 ESE 6 8 1021.9 - 0.0 - - - - - - -
15/11:00pm 15.5 ESE 7 9 1022.2 - 0.0 - - - - - - -
15/10:30pm 15.7 ESE 6 7 1022.2 - 0.0 - - - - - - -
15/10:00pm 16.0 ESE 7 9 1022.2 - 0.0 - - - - - - -
15/09:30pm 16.4 SE 9 11 1022.1 - 0.0 - - - - - - -
15/09:00pm 16.7 SE 10 12 1022.2 - 0.0 - - - - - - -
15/08:30pm 16.9 ESE 10 13 1022.0 - 0.0 - - - - - - -
15/08:00pm 16.8 ESE 9 12 1022.3 - 0.0 - - - - - - -
15/07:30pm 16.4 ESE 7 8 1022.4 - 0.0 - - - - - - -
15/07:00pm 16.3 SE 6 7 1022.5 - 0.0 - - - - - - -
15/06:30pm 16.5 SE 6 7 1022.2 - 0.0 - - - - - - -
15/06:00pm 17.0 SSE 6 7 1021.9 - 0.0 - - - - - - -
15/05:30pm 18.0 SSE 5 6 1021.8 - 0.0 - - - - - - -
15/05:00pm 18.7 SSE 5 7 1021.6 - 0.0 - - - - - - -
15/04:30pm 19.1 SSE 5 6 1021.8 - 0.0 - - - - - - -
15/04:00pm 19.2 SE 4 5 1022.1 - 0.0 - - - - - - -
15/03:30pm 19.8 E 5 7 1022.1 - 0.0 - - - - - - -
15/03:00pm 19.9 E 4 5 1022.4 - 0.0 - - - - - - -
15/02:30pm 19.8 ENE 6 8 1022.0 - 0.0 - - - - - - -
15/02:00pm 19.9 ENE 7 10 1022.1 - 0.0 - - - - - - -
15/01:30pm 20.5 E 7 9 1022.0 - 0.0 - - - - - - -
15/01:00pm 20.0 E 7 9 1022.8 - 0.0 - - - - - - -
15/12:30pm 20.4 E 8 10 1023.3 - 0.0 - - - - - - -
15/12:00pm 20.3 E 9 12 1023.5 - 0.0 - - - - - - -
15/11:30am 20.7 ESE 10 14 1023.5 - 0.0 - - - - - - -
15/11:00am 20.1 ESE 10 13 1024.0 - 0.0 - - - - - - -
15/10:30am 20.0 ESE 10 13 1024.6 - 0.0 - - - - - - -
15/10:00am 19.5 ESE 11 14 1024.7 - 0.0 - - - - - - -
15/09:30am 19.0 E 12 16 1024.5 - 0.0 - - - - - - -
15/09:00am 18.7 ESE 12 16 1024.6 - 0.0 - - - - - - -
15/08:30am 17.9 ESE 13 16 1024.5 - 0.0 - - - - - - -
15/08:00am 17.2 ESE 12 16 1024.5 - 0.0 - - - - - - -
15/07:30am 16.3 ESE 13 16 1024.0 - 0.0 - - - - - - -
15/07:00am 15.7 ESE 13 16 1023.8 - 0.0 - - - - - - -
15/06:30am 15.7 SE 12 15 1023.7 - 0.0 - - - - - - -
15/06:00am 15.8 ESE 12 16 1023.7 - 0.0 - - - - - - -
15/05:30am 15.8 ESE 11 14 1023.7 - 0.0 - - - - - - -
15/05:00am 16.2 ESE 11 14 1024.0 - 0.0 - - - - - - -
15/04:30am 15.9 ESE 12 15 1023.6 - 0.0 - - - - - - -
15/04:00am 15.9 ESE 13 17 1023.5 - 0.0 - - - - - - -
15/03:30am 15.7 ESE 12 16 1023.5 - 0.0 - - - - - - -
15/03:00am 15.9 ESE 12 16 1023.7 - 0.0 - - - - - - -
15/02:30am 15.9 ESE 13 16 1023.8 - 0.0 - - - - - - -
15/02:00am 15.8 ESE 12 15 1024.1 - 0.0 - - - - - - -
15/01:30am 15.9 ESE 12 16 1024.4 - 0.0 - - - - - - -
15/01:00am 15.8 ESE 13 17 1024.3 - 0.0 - - - - - - -
15/12:30am 16.1 ESE 15 18 1024.1 - 0.0 - - - - - - -
15/12:00am 15.9 SE 13 16 1024.1 - 0.0 - - - - - - -
 
Date/Time
CST
Temp

°C
Wind Pressure Rain
since 9am
mm
Weather Cloud Vis
km
Sea
Height
m
Swell
Dir
 
Speed
knots
Gust
knots
hPa Trend Height
m
Period
s
Dir
14/11:30pm 15.8 SE 12 16 1024.3 - 0.0 - - - - - - -
14/11:00pm 15.7 SE 13 17 1024.4 - 0.0 - - - - - - -
14/10:30pm 15.9 SSE 14 20 1024.5 - 0.0 - - - - - - -
14/10:00pm 16.1 SSE 15 21 1024.5 - 0.0 - - - - - - -
14/09:30pm 16.1 SSE 17 20 1024.5 - 0.0 - - - - - - -
14/09:00pm 16.2 SSE 17 21 1024.5 - 0.0 - - - - - - -
14/08:30pm 16.2 SSE 17 20 1024.3 - 0.0 - - - - - - -
14/08:00pm 16.4 SSE 17 21 1024.1 - 0.0 - - - - - - -
14/07:30pm 16.8 SSE 16 20 1024.0 - 0.0 - - - - - - -
14/07:00pm 17.3 SSE 14 19 1023.8 - 0.0 - - - - - - -
14/06:30pm 17.3 SE 14 20 1023.5 - 0.0 - - - - - - -
14/06:00pm 17.5 SE 13 17 1023.3 - 0.0 - - - - - - -
14/05:30pm 17.7 SE 15 19 1023.0 - 0.0 - - - - - - -
14/05:00pm 18.3 ESE 12 17 1023.0 - 0.0 - - - - - - -

Other Formats:

Comma delimited format used in spreadsheet applications
http://www.bom.gov.au/fwo/IDS60701/IDS60701.95806.axf

JavaScript Object Notation format (JSON) in row-major order
http://www.bom.gov.au/fwo/IDS60701/IDS60701.95806.json